createdAt,value
2022-12-06T00:02:37.373Z,8.36
2022-12-06T00:05:44.732Z,8.21
2022-12-06T00:08:50.299Z,7.90
2022-12-06T00:11:54.138Z,8.49
2022-12-06T00:14:56.276Z,8.56
2022-12-06T00:17:59.103Z,7.77
2022-12-06T00:21:13.623Z,8.24
2022-12-06T00:24:20.785Z,8.50
2022-12-06T00:27:23.239Z,7.82
2022-12-06T00:30:26.521Z,7.39
2022-12-06T00:33:29.899Z,7.19
2022-12-06T00:36:34.813Z,7.46
2022-12-06T00:39:37.225Z,8.43
2022-12-06T00:42:39.796Z,8.08
2022-12-06T00:45:44.713Z,7.33
2022-12-06T00:48:48.840Z,7.31
2022-12-06T00:51:51.346Z,7.07
2022-12-06T00:54:54.389Z,7.07
2022-12-06T00:57:58.366Z,7.15
2022-12-06T01:01:12.982Z,7.19
2022-12-06T01:04:15.317Z,7.30
2022-12-06T01:07:18.530Z,7.50
2022-12-06T01:10:20.770Z,7.23
2022-12-06T01:13:25.161Z,7.26
2022-12-06T01:16:30.863Z,7.43
2022-12-06T01:19:33.478Z,7.37
2022-12-06T01:22:35.493Z,8.03
2022-12-06T01:25:38.044Z,8.16
2022-12-06T01:28:40.324Z,7.80
2022-12-06T01:31:42.993Z,8.53
2022-12-06T01:34:45.626Z,8.16
2022-12-06T01:37:47.833Z,7.24
2022-12-06T01:40:50.415Z,7.13
2022-12-06T01:43:54.345Z,6.78
2022-12-06T01:46:57.157Z,6.82
2022-12-06T01:50:02.834Z,6.41
2022-12-06T01:53:10.737Z,6.31
2022-12-06T01:56:13.924Z,6.55
2022-12-06T01:59:18.054Z,6.79
2022-12-06T02:02:21.188Z,7.23
2022-12-06T02:05:23.543Z,7.22
2022-12-06T02:08:27.940Z,7.50
2022-12-06T02:11:34.947Z,7.13
2022-12-06T02:14:39.255Z,7.15
2022-12-06T02:17:51.499Z,7.42
2022-12-06T02:21:20.071Z,7.36
2022-12-06T02:24:37.482Z,7.71
2022-12-06T02:28:21.547Z,7.47
2022-12-06T02:31:45.484Z,7.27
2022-12-06T02:34:47.912Z,7.00
2022-12-06T02:37:56.011Z,7.09
2022-12-06T02:41:02.230Z,7.48
2022-12-06T02:44:09.153Z,8.77
2022-12-06T02:47:14.778Z,8.86
2022-12-06T02:50:24.324Z,9.06
2022-12-06T02:53:30.615Z,9.24
2022-12-06T02:56:34.791Z,8.90
2022-12-06T02:59:38.555Z,7.84
2022-12-06T03:02:41.501Z,7.71
2022-12-06T03:06:19.622Z,8.93
2022-12-06T03:09:34.138Z,9.47
2022-12-06T03:12:47.813Z,9.72
2022-12-06T03:16:18.222Z,9.89
2022-12-06T03:19:27.799Z,9.06
2022-12-06T03:22:40.130Z,7.44
2022-12-06T03:25:45.452Z,7.34
2022-12-06T03:28:50.858Z,7.98
2022-12-06T03:31:54.557Z,6.64
2022-12-06T03:35:03.413Z,6.44
2022-12-06T03:38:14.865Z,6.22
2022-12-06T03:41:19.686Z,6.55
2022-12-06T03:44:24.062Z,6.44
2022-12-06T03:47:43.502Z,6.49
2022-12-06T03:50:58.533Z,6.46
2022-12-06T03:54:04.911Z,6.20
2022-12-06T03:57:07.808Z,5.97
2022-12-06T04:00:11.184Z,5.69
2022-12-06T04:03:16.988Z,5.65
2022-12-06T04:06:21.202Z,5.59
2022-12-06T04:09:42.367Z,5.79
2022-12-06T04:13:03.046Z,5.77
2022-12-06T04:16:26.062Z,5.50
2022-12-06T04:19:28.213Z,5.53
2022-12-06T04:22:49.716Z,5.85
2022-12-06T04:25:52.074Z,6.07
2022-12-06T04:29:13.670Z,6.21
2022-12-06T04:32:34.384Z,5.73
2022-12-06T04:35:56.863Z,6.31
2022-12-06T04:38:59.845Z,6.46
2022-12-06T04:42:21.600Z,6.31
2022-12-06T04:45:23.639Z,6.34
2022-12-06T04:48:26.514Z,6.55
2022-12-06T04:51:30.053Z,7.23
2022-12-06T04:54:32.920Z,8.24
2022-12-06T04:57:35.157Z,9.00
2022-12-06T05:00:37.706Z,10.29
2022-12-06T05:03:44.158Z,10.83
2022-12-06T05:06:47.686Z,12.37
2022-12-06T05:09:50.308Z,13.27
2022-12-06T05:12:53.682Z,14.54
2022-12-06T05:16:00.900Z,14.88
2022-12-06T05:19:03.821Z,15.14
2022-12-06T05:22:06.028Z,15.49
2022-12-06T05:25:09.719Z,15.73
2022-12-06T05:28:13.019Z,15.73
2022-12-06T05:31:16.528Z,15.93
2022-12-06T05:34:18.751Z,15.75
2022-12-06T05:37:22.080Z,15.64
2022-12-06T05:40:24.507Z,15.61
2022-12-06T05:43:27.109Z,15.75
2022-12-06T05:46:29.592Z,15.75
2022-12-06T05:49:32.447Z,16.05
2022-12-06T05:52:34.611Z,16.17
2022-12-06T05:55:37.710Z,16.17
2022-12-06T05:58:39.867Z,16.09
2022-12-06T06:01:42.946Z,16.19
2022-12-06T06:04:45.414Z,16.32
2022-12-06T06:07:47.924Z,16.28
2022-12-06T06:10:50.449Z,16.28
2022-12-06T06:13:54.753Z,16.26
2022-12-06T06:16:57.920Z,16.22
2022-12-06T06:20:06.788Z,15.87
2022-12-06T06:23:09.547Z,16.33
2022-12-06T06:26:15.116Z,16.48
2022-12-06T06:29:18.235Z,16.41
2022-12-06T06:32:21.359Z,16.35
2022-12-06T06:35:23.393Z,16.38
2022-12-06T06:38:26.239Z,16.44
2022-12-06T06:41:28.268Z,16.49
2022-12-06T06:44:31.180Z,16.60
2022-12-06T06:47:33.566Z,16.68
2022-12-06T06:50:36.119Z,16.59
2022-12-06T06:53:39.550Z,16.63
2022-12-06T06:56:42.221Z,16.69
2022-12-06T06:59:46.013Z,16.69
2022-12-06T07:02:48.793Z,16.63
2022-12-06T07:05:56.923Z,16.58
2022-12-06T07:08:59.365Z,15.91
2022-12-06T07:12:01.523Z,14.41
2022-12-06T07:15:04.783Z,15.67
2022-12-06T07:18:07.851Z,16.22
2022-12-06T07:21:13.967Z,16.58
2022-12-06T07:24:16.661Z,16.51
2022-12-06T07:27:19.890Z,16.51
2022-12-06T07:30:27.404Z,16.26
2022-12-06T07:33:30.508Z,16.45
2022-12-06T07:36:33.340Z,15.68
2022-12-06T07:39:36.043Z,16.07
2022-12-06T07:43:17.264Z,15.33
2022-12-06T07:46:20.619Z,14.96
2022-12-06T07:49:23.076Z,14.22
2022-12-06T07:52:25.993Z,13.53
2022-12-06T07:55:28.401Z,12.36
2022-12-06T07:58:31.231Z,11.38
2022-12-06T08:01:34.482Z,13.40
2022-12-06T08:04:37.026Z,15.13
2022-12-06T08:07:40.145Z,15.04
2022-12-06T08:10:44.771Z,13.63
2022-12-06T08:13:46.985Z,12.92
2022-12-06T08:16:49.613Z,11.82
2022-12-06T08:19:52.158Z,12.12
2022-12-06T08:22:56.380Z,14.86
2022-12-06T08:26:16.722Z,16.19
2022-12-06T08:29:20.717Z,16.52
2022-12-06T08:32:22.883Z,16.68
2022-12-06T08:35:25.557Z,16.89
2022-12-06T08:38:29.622Z,17.21
2022-12-06T08:41:52.549Z,17.33
2022-12-06T08:44:55.087Z,17.03
2022-12-06T08:47:57.845Z,16.93
2022-12-06T08:51:03.378Z,17.16
2022-12-06T08:54:08.277Z,16.97
2022-12-06T08:57:10.299Z,16.42
2022-12-06T09:00:13.592Z,16.66
2022-12-06T09:03:15.999Z,17.03
2022-12-06T09:06:20.618Z,17.41
2022-12-06T09:09:23.114Z,17.51
2022-12-06T09:12:26.407Z,17.67
2022-12-06T09:15:28.603Z,17.71
2022-12-06T09:18:31.233Z,17.74
2022-12-06T09:21:34.524Z,17.38
2022-12-06T09:24:38.933Z,17.31
2022-12-06T09:27:41.229Z,17.44
2022-12-06T09:30:43.827Z,17.43
2022-12-06T09:33:46.121Z,17.14
2022-12-06T09:36:58.833Z,17.61
2022-12-06T09:40:12.016Z,17.85
2022-12-06T09:43:45.577Z,17.94
2022-12-06T09:47:15.171Z,17.94
2022-12-06T09:50:30.684Z,17.98
2022-12-06T09:53:35.747Z,18.01
2022-12-06T09:56:50.195Z,18.02
2022-12-06T10:00:11.345Z,18.05
2022-12-06T10:03:53.325Z,18.06
2022-12-06T10:07:17.307Z,18.09
2022-12-06T10:11:00.660Z,18.06
2022-12-06T10:14:21.866Z,17.98
2022-12-06T10:17:36.964Z,18.18
2022-12-06T10:20:50.243Z,18.37
2022-12-06T10:24:02.428Z,18.47
2022-12-06T10:27:24.561Z,18.56
2022-12-06T10:30:27.092Z,18.66
2022-12-06T10:33:57.736Z,18.87
2022-12-06T10:38:01.910Z,18.87
2022-12-06T10:41:15.763Z,19.03
2022-12-06T10:44:44.656Z,19.07
2022-12-06T10:47:47.261Z,19.10
2022-12-06T10:50:58.729Z,19.14
2022-12-06T10:54:10.415Z,19.21
2022-12-06T10:57:36.818Z,19.25
2022-12-06T11:00:49.369Z,19.27
2022-12-06T11:04:20.667Z,19.25
2022-12-06T11:07:34.285Z,19.20
2022-12-06T11:10:39.322Z,19.18
2022-12-06T11:13:49.815Z,19.11
2022-12-06T11:16:52.268Z,19.14
2022-12-06T11:20:03.583Z,19.14
2022-12-06T11:23:22.022Z,19.10
2022-12-06T11:26:42.434Z,19.25
2022-12-06T11:29:48.351Z,19.32
2022-12-06T11:32:52.501Z,19.25
2022-12-06T11:35:55.436Z,19.35
2022-12-06T11:38:59.039Z,19.45
2022-12-06T11:42:04.571Z,19.57
2022-12-06T11:45:15.392Z,19.59
2022-12-06T11:48:23.726Z,19.44
2022-12-06T11:51:27.050Z,19.48
2022-12-06T11:54:35.223Z,19.44
2022-12-06T11:57:50.961Z,19.47
2022-12-06T12:00:56.512Z,19.51
2022-12-06T12:03:58.531Z,19.52
2022-12-06T12:07:04.787Z,19.57
2022-12-06T12:10:28.673Z,19.55
2022-12-06T12:13:45.408Z,19.54
2022-12-06T12:16:50.557Z,19.58
2022-12-06T12:19:59.330Z,19.54
2022-12-06T12:23:06.363Z,19.48
2022-12-06T12:26:16.381Z,19.59
2022-12-06T12:29:22.278Z,19.59
2022-12-06T12:32:25.944Z,19.58
2022-12-06T12:35:28.741Z,19.55
2022-12-06T12:38:37.445Z,19.55
2022-12-06T12:41:44.219Z,19.48
2022-12-06T12:44:47.132Z,19.52
2022-12-06T12:48:21.750Z,19.54
2022-12-06T12:51:28.820Z,19.47
2022-12-06T12:54:39.368Z,19.31
2022-12-06T12:57:48.205Z,19.08
2022-12-06T13:00:51.144Z,19.17
2022-12-06T13:04:05.207Z,19.12
2022-12-06T13:07:07.398Z,19.18
2022-12-06T13:10:30.155Z,19.17
2022-12-06T13:13:44.105Z,19.12
2022-12-06T13:16:52.125Z,19.00
2022-12-06T13:20:50.494Z,18.93
2022-12-06T13:24:46.796Z,18.99
2022-12-06T13:28:02.180Z,18.93
2022-12-06T13:31:15.908Z,18.90
2022-12-06T13:34:36.105Z,18.81
2022-12-06T13:37:53.867Z,18.84
2022-12-06T13:41:04.796Z,18.89
2022-12-06T13:44:52.252Z,18.90
2022-12-06T13:47:54.789Z,18.90
2022-12-06T13:51:04.256Z,18.87
2022-12-06T13:54:06.475Z,18.83
2022-12-06T13:57:31.972Z,18.81
2022-12-06T14:00:34.710Z,18.76
2022-12-06T14:03:41.656Z,18.73
2022-12-06T14:06:46.301Z,18.70
2022-12-06T14:09:50.484Z,18.70
2022-12-06T14:13:01.496Z,18.71
2022-12-06T14:16:06.219Z,18.67
2022-12-06T14:19:21.660Z,18.69
2022-12-06T14:22:32.056Z,18.64
2022-12-06T14:25:34.222Z,18.56
2022-12-06T14:28:36.670Z,18.57
2022-12-06T14:31:40.887Z,18.57
2022-12-06T14:34:43.746Z,18.52
2022-12-06T14:37:51.250Z,18.47
2022-12-06T14:41:17.094Z,18.43
2022-12-06T14:44:21.530Z,18.43
2022-12-06T14:47:24.537Z,18.42
2022-12-06T14:50:51.231Z,18.43
2022-12-06T14:53:53.865Z,18.39
2022-12-06T14:56:57.606Z,18.39
2022-12-06T15:00:18.491Z,18.42
2022-12-06T15:03:29.474Z,18.39
2022-12-06T15:06:35.545Z,18.39
2022-12-06T15:09:47.268Z,18.40
2022-12-06T15:12:59.550Z,18.37
2022-12-06T15:16:13.527Z,18.39
2022-12-06T15:19:18.204Z,18.39
2022-12-06T15:22:29.454Z,18.36
2022-12-06T15:25:32.280Z,18.39
2022-12-06T15:28:43.377Z,18.42
2022-12-06T15:31:58.401Z,18.57
2022-12-06T15:35:05.922Z,18.70
2022-12-06T15:38:12.479Z,18.83
2022-12-06T15:41:27.221Z,18.86
2022-12-06T15:44:33.260Z,18.93
2022-12-06T15:47:36.226Z,19.01
2022-12-06T15:50:38.782Z,19.08
2022-12-06T15:53:42.328Z,19.12
2022-12-06T15:56:49.460Z,19.14
2022-12-06T15:59:57.926Z,19.20
2022-12-06T16:03:04.942Z,19.17
2022-12-06T16:06:15.386Z,19.22
2022-12-06T16:09:28.435Z,19.28
2022-12-06T16:12:53.564Z,19.28
2022-12-06T16:15:59.217Z,19.25
2022-12-06T16:19:05.793Z,19.18
2022-12-06T16:22:18.267Z,19.21
2022-12-06T16:25:25.290Z,19.21
2022-12-06T16:28:32.033Z,19.22
2022-12-06T16:31:44.319Z,19.14
2022-12-06T16:34:58.468Z,19.11
2022-12-06T16:38:09.090Z,19.11
2022-12-06T16:41:31.092Z,19.08
2022-12-06T16:44:52.369Z,19.00
2022-12-06T16:48:02.470Z,19.01
2022-12-06T16:51:08.947Z,18.99
2022-12-06T16:54:17.425Z,18.90
2022-12-06T16:57:25.945Z,18.91
2022-12-06T17:00:33.823Z,17.13
2022-12-06T17:03:39.338Z,14.64
2022-12-06T17:06:49.491Z,16.97
2022-12-06T17:09:58.152Z,17.98
2022-12-06T17:13:02.719Z,18.29
2022-12-06T17:16:08.575Z,18.50
2022-12-06T17:19:19.999Z,18.69
2022-12-06T17:22:23.904Z,18.83
2022-12-06T17:25:27.623Z,18.87
2022-12-06T17:28:31.921Z,18.91
2022-12-06T17:31:38.148Z,18.97
2022-12-06T17:34:42.010Z,19.00
2022-12-06T17:37:46.294Z,19.01
2022-12-06T17:40:49.929Z,19.06
2022-12-06T17:43:54.548Z,19.04
2022-12-06T17:47:00.997Z,19.04
2022-12-06T17:50:05.136Z,19.07
2022-12-06T17:53:08.721Z,19.14
2022-12-06T17:56:41.840Z,19.15
2022-12-06T17:59:46.753Z,19.14
2022-12-06T18:02:49.898Z,19.21
2022-12-06T18:05:53.279Z,19.24
2022-12-06T18:08:57.063Z,19.22
2022-12-06T18:12:01.481Z,19.22
2022-12-06T18:15:25.514Z,19.17
2022-12-06T18:18:27.705Z,19.18
2022-12-06T18:21:30.290Z,19.03
2022-12-06T18:24:36.111Z,18.84
2022-12-06T18:27:39.492Z,18.89
2022-12-06T18:30:41.740Z,18.91
2022-12-06T18:33:44.988Z,18.90
2022-12-06T18:36:47.888Z,18.73
2022-12-06T18:39:50.569Z,18.67
2022-12-06T18:42:52.940Z,18.60
2022-12-06T18:46:03.930Z,18.57
2022-12-06T18:49:07.186Z,17.82
2022-12-06T18:52:10.478Z,17.68
2022-12-06T18:55:12.731Z,16.86
2022-12-06T18:58:16.159Z,16.59
2022-12-06T19:01:22.939Z,12.96
2022-12-06T19:04:25.784Z,11.76
2022-12-06T19:07:29.897Z,11.85
2022-12-06T19:10:33.155Z,11.10
2022-12-06T19:13:35.687Z,10.80
2022-12-06T19:16:38.299Z,10.97
2022-12-06T19:19:41.393Z,10.46
2022-12-06T19:22:43.937Z,9.98
2022-12-06T19:25:46.625Z,9.32
2022-12-06T19:28:51.253Z,10.17
2022-12-06T19:31:53.955Z,14.40
2022-12-06T19:34:57.250Z,15.91
2022-12-06T19:37:59.948Z,16.72
2022-12-06T19:41:07.601Z,17.24
2022-12-06T19:44:18.586Z,17.44
2022-12-06T19:47:21.755Z,17.27
2022-12-06T19:50:26.922Z,17.17
2022-12-06T19:53:36.657Z,17.58
2022-12-06T19:56:41.445Z,17.35
2022-12-06T19:59:46.198Z,14.83
2022-12-06T20:02:49.334Z,16.68
2022-12-06T20:06:05.746Z,17.43
2022-12-06T20:09:08.255Z,17.68
2022-12-06T20:12:13.263Z,18.08
2022-12-06T20:15:15.518Z,18.45
2022-12-06T20:18:19.173Z,18.67
2022-12-06T20:21:22.009Z,18.74
2022-12-06T20:24:24.702Z,18.67
2022-12-06T20:27:47.064Z,18.57
2022-12-06T20:30:50.005Z,18.56
2022-12-06T20:33:56.483Z,18.55
2022-12-06T20:37:00.074Z,18.50
2022-12-06T20:40:04.149Z,18.45
2022-12-06T20:43:07.339Z,18.47
2022-12-06T20:46:15.324Z,18.52
2022-12-06T20:49:18.182Z,18.52
2022-12-06T20:52:20.426Z,18.52
2022-12-06T20:55:24.043Z,18.55
2022-12-06T20:58:27.228Z,18.47
2022-12-06T21:01:34.618Z,17.54
2022-12-06T21:04:37.096Z,17.47
2022-12-06T21:07:40.299Z,17.94
2022-12-06T21:11:06.569Z,18.12
2022-12-06T21:14:06.354Z,17.06
2022-12-06T21:17:08.792Z,15.67
2022-12-06T21:20:12.135Z,16.11
2022-12-06T21:23:16.168Z,16.22
2022-12-06T21:26:19.090Z,16.19
2022-12-06T21:29:30.448Z,17.00
2022-12-06T21:32:34.728Z,17.55
2022-12-06T21:35:37.904Z,17.91
2022-12-06T21:38:41.053Z,18.04
2022-12-06T21:41:43.960Z,17.92
2022-12-06T21:44:47.480Z,17.70
2022-12-06T21:47:50.239Z,17.50
2022-12-06T21:50:52.854Z,17.95
2022-12-06T21:53:55.654Z,17.89
2022-12-06T21:56:58.617Z,17.96
2022-12-06T22:00:01.847Z,18.30
2022-12-06T22:03:20.948Z,18.36
2022-12-06T22:06:25.190Z,18.47
2022-12-06T22:09:28.213Z,18.57
2022-12-06T22:12:31.847Z,18.67
2022-12-06T22:15:35.490Z,18.77
2022-12-06T22:18:44.429Z,18.81
2022-12-06T22:21:48.699Z,18.87
2022-12-06T22:24:51.333Z,18.93
2022-12-06T22:27:55.041Z,18.96
2022-12-06T22:31:21.382Z,18.94
2022-12-06T22:34:25.673Z,18.97
2022-12-06T22:37:28.711Z,19.03
2022-12-06T22:40:31.455Z,19.07
2022-12-06T22:43:34.690Z,19.14
2022-12-06T22:46:38.185Z,19.17
2022-12-06T22:49:40.965Z,19.21
2022-12-06T22:52:43.792Z,19.30
2022-12-06T22:55:45.864Z,17.55
2022-12-06T22:58:48.951Z,15.87
2022-12-06T23:01:51.755Z,12.30
2022-12-06T23:04:54.292Z,10.20
2022-12-06T23:07:57.522Z,10.70
2022-12-06T23:11:05.788Z,13.27
2022-12-06T23:14:08.438Z,13.62
2022-12-06T23:17:10.954Z,11.46
2022-12-06T23:20:13.224Z,10.03
2022-12-06T23:23:15.995Z,8.90
2022-12-06T23:26:25.427Z,8.49
2022-12-06T23:29:28.683Z,8.12
2022-12-06T23:32:30.958Z,7.91
2022-12-06T23:35:33.664Z,8.16
2022-12-06T23:38:36.312Z,8.18
2022-12-06T23:41:39.221Z,8.21
2022-12-06T23:44:41.464Z,8.13
2022-12-06T23:47:44.179Z,8.29
2022-12-06T23:50:46.314Z,8.18
2022-12-06T23:53:54.793Z,7.92
2022-12-06T23:56:56.902Z,7.51
